createdAt,value
2023-04-02T00:00:17.588Z,73.08
2023-04-02T00:03:23.291Z,73.14
2023-04-02T00:06:34.488Z,73.25
2023-04-02T00:09:37.910Z,73.59
2023-04-02T00:12:40.794Z,74.11
2023-04-02T00:15:46.632Z,75.59
2023-04-02T00:18:55.589Z,76.42
2023-04-02T00:21:59.573Z,76.92
2023-04-02T00:25:08.593Z,77.04
2023-04-02T00:28:20.674Z,77.07
2023-04-02T00:31:23.709Z,77.46
2023-04-02T00:34:28.176Z,78.24
2023-04-02T00:37:39.135Z,78.31
2023-04-02T00:40:42.594Z,78.81
2023-04-02T00:43:54.772Z,78.31
2023-04-02T00:46:58.539Z,78.70
2023-04-02T00:50:26.066Z,78.93
2023-04-02T00:53:30.837Z,79.19
2023-04-02T00:56:42.768Z,77.74
2023-04-02T00:59:56.958Z,76.79
2023-04-02T01:03:18.091Z,76.70
2023-04-02T01:06:22.320Z,76.94
2023-04-02T01:09:27.900Z,77.10
2023-04-02T01:12:46.120Z,76.31
2023-04-02T01:16:10.051Z,75.37
2023-04-02T01:19:37.522Z,75.81
2023-04-02T01:22:48.148Z,75.28
2023-04-02T01:26:12.628Z,75.77
2023-04-02T01:29:24.216Z,76.86
2023-04-02T01:32:29.209Z,76.77
2023-04-02T01:35:36.705Z,77.58
2023-04-02T01:38:46.196Z,78.20
2023-04-02T01:42:02.551Z,79.31
2023-04-02T01:45:31.399Z,79.91
2023-04-02T01:48:34.083Z,80.12
2023-04-02T01:51:42.116Z,80.01
2023-04-02T01:54:47.550Z,80.13
2023-04-02T01:57:53.142Z,79.75
2023-04-02T02:01:09.804Z,79.54
2023-04-02T02:04:14.096Z,79.26
2023-04-02T02:07:19.716Z,79.58
2023-04-02T02:10:30.207Z,79.63
2023-04-02T02:13:35.479Z,80.02
2023-04-02T02:16:42.386Z,79.73
2023-04-02T02:19:51.645Z,79.58
2023-04-02T02:23:02.185Z,80.17
2023-04-02T02:26:06.742Z,81.04
2023-04-02T02:29:12.375Z,81.02
2023-04-02T02:32:16.738Z,81.55
2023-04-02T02:35:39.314Z,81.38
2023-04-02T02:39:09.213Z,80.04
2023-04-02T02:42:29.011Z,79.14
2023-04-02T02:45:37.869Z,78.53
2023-04-02T02:48:42.330Z,77.91
2023-04-02T02:51:57.784Z,77.26
2023-04-02T02:55:18.970Z,76.79
2023-04-02T02:58:32.132Z,76.50
2023-04-02T03:01:59.360Z,75.57
2023-04-02T03:05:03.158Z,75.81
2023-04-02T03:08:12.086Z,76.22
2023-04-02T03:11:24.127Z,75.83
2023-04-02T03:14:40.411Z,75.55
2023-04-02T03:17:57.968Z,75.53
2023-04-02T03:21:33.095Z,75.46
2023-04-02T03:24:47.445Z,75.88
2023-04-02T03:27:54.154Z,75.54
2023-04-02T03:31:18.282Z,75.67
2023-04-02T03:34:29.813Z,76.35
2023-04-02T03:37:45.717Z,76.60
2023-04-02T03:40:54.659Z,77.17
2023-04-02T03:44:01.246Z,77.40
2023-04-02T03:47:32.005Z,77.71
2023-04-02T03:51:07.998Z,78.42
2023-04-02T03:54:17.532Z,79.34
2023-04-02T03:57:38.904Z,79.63
2023-04-02T04:00:50.396Z,80.20
2023-04-02T04:04:09.791Z,79.43
2023-04-02T04:07:40.984Z,79.62
2023-04-02T04:10:52.957Z,79.45
2023-04-02T04:14:10.258Z,79.26
2023-04-02T04:17:17.705Z,79.11
2023-04-02T04:20:28.246Z,78.91
2023-04-02T04:23:50.221Z,79.54
2023-04-02T04:27:18.563Z,79.49
2023-04-02T04:30:50.434Z,79.31
2023-04-02T04:34:03.293Z,79.86
2023-04-02T04:37:10.229Z,79.46
2023-04-02T04:40:24.539Z,78.68
2023-04-02T04:43:57.071Z,78.75
2023-04-02T04:47:12.987Z,78.50
2023-04-02T04:50:22.968Z,78.00
2023-04-02T04:53:31.129Z,77.71
2023-04-02T04:56:35.192Z,76.91
2023-04-02T05:00:17.493Z,76.76
2023-04-02T05:03:45.041Z,76.38
2023-04-02T05:07:19.538Z,76.47
2023-04-02T05:10:40.674Z,76.42
2023-04-02T05:13:59.271Z,76.26
2023-04-02T05:17:11.554Z,76.02
2023-04-02T05:20:24.984Z,75.91
2023-04-02T05:23:37.598Z,76.71
2023-04-02T05:26:46.820Z,75.86
2023-04-02T05:29:56.210Z,75.99
2023-04-02T05:33:30.486Z,75.95
2023-04-02T05:36:37.193Z,75.94
2023-04-02T05:39:44.518Z,76.49
2023-04-02T05:42:53.638Z,75.48
2023-04-02T05:46:02.741Z,75.11
2023-04-02T05:49:09.072Z,74.92
2023-04-02T05:52:16.292Z,74.70
2023-04-02T05:55:34.658Z,74.52
2023-04-02T05:58:44.054Z,74.56
2023-04-02T06:02:05.245Z,74.27
2023-04-02T06:05:27.373Z,73.58
2023-04-02T06:08:45.827Z,73.38
2023-04-02T06:12:14.338Z,72.60
2023-04-02T06:15:21.488Z,73.54
2023-04-02T06:18:32.897Z,71.09
2023-04-02T06:21:35.564Z,70.44
2023-04-02T06:24:40.624Z,70.75
2023-04-02T06:27:45.720Z,71.33
2023-04-02T06:30:52.817Z,71.84
2023-04-02T06:33:56.828Z,71.11
2023-04-02T06:37:07.686Z,71.26
2023-04-02T06:40:37.352Z,71.38
2023-04-02T06:43:56.146Z,70.28
2023-04-02T06:47:34.405Z,69.84
2023-04-02T06:50:56.733Z,70.24
2023-04-02T06:53:59.605Z,71.00
2023-04-02T06:57:02.591Z,70.02
2023-04-02T07:00:23.712Z,70.11
2023-04-02T07:03:30.208Z,69.66
2023-04-02T07:06:36.389Z,69.09
2023-04-02T07:09:40.702Z,69.47
2023-04-02T07:12:45.115Z,69.60
2023-04-02T07:15:53.909Z,69.01
2023-04-02T07:19:00.755Z,70.27
2023-04-02T07:22:06.475Z,68.15
2023-04-02T07:25:13.961Z,67.48
2023-04-02T07:28:16.955Z,68.19
2023-04-02T07:31:25.884Z,68.17
2023-04-02T07:34:28.682Z,67.26
2023-04-02T07:37:31.759Z,67.52
2023-04-02T07:40:34.499Z,67.18
2023-04-02T07:43:40.744Z,67.14
2023-04-02T07:46:43.381Z,66.88
2023-04-02T07:50:10.710Z,66.22
2023-04-02T07:53:33.915Z,66.95
2023-04-02T07:56:37.374Z,66.92
2023-04-02T07:59:42.297Z,67.07
2023-04-02T08:02:45.590Z,65.98
2023-04-02T08:05:56.448Z,65.19
2023-04-02T08:08:59.380Z,65.95
2023-04-02T08:12:01.982Z,65.07
2023-04-02T08:15:07.066Z,65.32
2023-04-02T08:18:10.762Z,65.04
2023-04-02T08:21:16.355Z,64.34
2023-04-02T08:24:19.771Z,65.01
2023-04-02T08:27:28.948Z,67.84
2023-04-02T08:30:31.607Z,68.11
2023-04-02T08:33:34.316Z,68.58
2023-04-02T08:36:38.733Z,69.55
2023-04-02T08:39:41.688Z,73.41
2023-04-02T08:42:58.815Z,74.79
2023-04-02T08:46:04.337Z,78.04
2023-04-02T08:49:16.725Z,77.90
2023-04-02T08:52:31.104Z,78.21
2023-04-02T08:56:05.772Z,76.55
2023-04-02T08:59:14.677Z,74.35
2023-04-02T09:02:52.140Z,73.90
2023-04-02T09:05:55.572Z,71.34
2023-04-02T09:08:59.110Z,69.44
2023-04-02T09:12:05.744Z,69.23
2023-04-02T09:15:11.173Z,68.24
2023-04-02T09:18:19.236Z,67.98
2023-04-02T09:21:22.038Z,67.71
2023-04-02T09:24:24.623Z,66.43
2023-04-02T09:27:32.687Z,66.30
2023-04-02T09:31:07.039Z,66.26
2023-04-02T09:34:32.491Z,67.14
2023-04-02T09:37:35.118Z,66.21
2023-04-02T09:40:43.187Z,64.78
2023-04-02T09:43:45.808Z,64.26
2023-04-02T09:47:06.466Z,65.33
2023-04-02T09:50:25.736Z,65.54
2023-04-02T09:53:30.910Z,66.11
2023-04-02T09:56:37.025Z,65.04
2023-04-02T09:59:39.692Z,65.64
2023-04-02T10:02:43.343Z,63.21
2023-04-02T10:05:47.519Z,64.23
2023-04-02T10:08:50.316Z,63.59
2023-04-02T10:11:54.660Z,66.33
2023-04-02T10:14:58.391Z,67.04
2023-04-02T10:18:30.370Z,65.85
2023-04-02T10:21:35.984Z,67.61
2023-04-02T10:24:40.391Z,67.45
2023-04-02T10:28:03.994Z,68.02
2023-04-02T10:31:39.026Z,69.10
2023-04-02T10:35:03.664Z,69.06
2023-04-02T10:38:31.624Z,67.97
2023-04-02T10:42:17.908Z,68.94
2023-04-02T10:45:25.648Z,65.17
2023-04-02T10:48:44.558Z,65.47
2023-04-02T10:51:59.646Z,64.72
2023-04-02T10:55:14.393Z,63.69
2023-04-02T10:58:26.433Z,64.29
2023-04-02T11:01:32.789Z,63.90
2023-04-02T11:04:47.093Z,63.33
2023-04-02T11:08:03.833Z,61.97
2023-04-02T11:11:27.664Z,62.97
2023-04-02T11:14:31.906Z,62.12
2023-04-02T11:17:34.714Z,61.18
2023-04-02T11:20:50.376Z,59.61
2023-04-02T11:24:01.759Z,61.93
2023-04-02T11:27:10.558Z,61.24
2023-04-02T11:30:16.069Z,63.21
2023-04-02T11:33:44.593Z,62.27
2023-04-02T11:36:54.459Z,62.47
2023-04-02T11:39:59.378Z,64.63
2023-04-02T11:43:32.947Z,63.65
2023-04-02T11:46:45.632Z,69.19
2023-04-02T11:50:06.143Z,71.46
2023-04-02T11:53:12.099Z,70.90
2023-04-02T11:56:44.769Z,70.91
2023-04-02T11:59:51.037Z,69.92
2023-04-02T12:03:16.493Z,69.84
2023-04-02T12:06:34.061Z,69.72
2023-04-02T12:09:45.635Z,69.16
2023-04-02T12:12:51.555Z,65.92
2023-04-02T12:15:58.036Z,66.47
2023-04-02T12:19:01.298Z,64.27
2023-04-02T12:22:04.036Z,63.49
2023-04-02T12:25:29.597Z,64.18
2023-04-02T12:28:34.052Z,64.04
2023-04-02T12:31:36.849Z,60.29
2023-04-02T12:34:46.233Z,60.28
2023-04-02T12:37:53.097Z,60.80
2023-04-02T12:41:01.504Z,62.32
2023-04-02T12:44:06.741Z,62.86
2023-04-02T12:47:13.405Z,66.60
2023-04-02T12:50:17.333Z,67.23
2023-04-02T12:53:32.716Z,65.33
2023-04-02T12:56:35.756Z,65.53
2023-04-02T12:59:39.273Z,66.54
2023-04-02T13:02:46.697Z,63.34
2023-04-02T13:05:57.492Z,66.16
2023-04-02T13:09:08.280Z,69.95
2023-04-02T13:12:24.558Z,73.52
2023-04-02T13:15:34.693Z,75.94
2023-04-02T13:18:38.513Z,77.37
2023-04-02T13:21:44.146Z,77.41
2023-04-02T13:24:49.654Z,76.49
2023-04-02T13:27:53.929Z,75.04
2023-04-02T13:30:56.557Z,72.60
2023-04-02T13:33:59.512Z,73.12
2023-04-02T13:37:11.250Z,73.16
2023-04-02T13:40:16.396Z,73.69
2023-04-02T13:43:23.170Z,74.27
2023-04-02T13:46:36.420Z,71.92
2023-04-02T13:49:39.053Z,70.50
2023-04-02T13:52:41.697Z,67.63
2023-04-02T13:55:45.479Z,65.19
2023-04-02T13:58:48.667Z,63.21
2023-04-02T14:01:53.914Z,59.05
2023-04-02T14:05:19.636Z,59.26
2023-04-02T14:08:22.128Z,61.49
2023-04-02T14:11:37.435Z,57.52
2023-04-02T14:14:59.477Z,56.98
2023-04-02T14:18:23.697Z,57.12
2023-04-02T14:21:54.717Z,56.08
2023-04-02T14:25:25.604Z,60.94
2023-04-02T14:28:40.217Z,57.34
2023-04-02T14:32:15.185Z,55.20
2023-04-02T14:35:36.447Z,57.88
2023-04-02T14:39:09.529Z,61.26
2023-04-02T14:42:18.491Z,63.36
2023-04-02T14:45:43.199Z,57.20
2023-04-02T14:49:07.267Z,60.93
2023-04-02T14:52:17.122Z,65.75
2023-04-02T14:55:47.307Z,67.69
2023-04-02T14:58:54.539Z,68.12
2023-04-02T15:02:04.648Z,66.50
2023-04-02T15:05:43.784Z,59.71
2023-04-02T15:09:08.417Z,56.21
2023-04-02T15:12:28.977Z,56.04
2023-04-02T15:15:55.936Z,53.14
2023-04-02T15:19:03.370Z,52.34
2023-04-02T15:22:17.899Z,53.35
2023-04-02T15:25:31.919Z,52.75
2023-04-02T15:29:22.171Z,53.07
2023-04-02T15:32:34.510Z,59.00
2023-04-02T15:35:50.659Z,66.72
2023-04-02T15:39:12.948Z,70.86
2023-04-02T15:42:35.536Z,67.17
2023-04-02T15:45:53.421Z,65.26
2023-04-02T15:49:38.173Z,61.09
2023-04-02T15:52:55.497Z,60.57
2023-04-02T15:56:08.744Z,65.54
2023-04-02T15:59:11.654Z,68.28
2023-04-02T16:02:48.988Z,68.89
2023-04-02T16:06:17.278Z,69.52
2023-04-02T16:09:39.063Z,67.22
2023-04-02T16:12:42.620Z,68.26
2023-04-02T16:16:02.366Z,66.78
2023-04-02T16:19:35.354Z,66.18
2023-04-02T16:22:49.775Z,62.00
2023-04-02T16:26:12.973Z,60.23
2023-04-02T16:29:25.973Z,56.56
2023-04-02T16:32:56.309Z,58.85
2023-04-02T16:36:17.820Z,58.71
2023-04-02T16:39:29.328Z,59.81
2023-04-02T16:42:45.977Z,60.73
2023-04-02T16:46:11.928Z,64.30
2023-04-02T16:49:37.342Z,65.74
2023-04-02T16:52:53.863Z,68.20
2023-04-02T16:56:16.889Z,71.62
2023-04-02T17:00:04.050Z,75.14
2023-04-02T17:03:37.554Z,77.17
2023-04-02T17:06:42.754Z,78.42
2023-04-02T17:09:54.044Z,79.01
2023-04-02T17:13:19.611Z,79.59
2023-04-02T17:16:28.036Z,79.74
2023-04-02T17:19:32.494Z,80.19
2023-04-02T17:22:36.181Z,79.64
2023-04-02T17:25:54.276Z,79.82
2023-04-02T17:29:01.626Z,78.83
2023-04-02T17:32:06.926Z,78.66
2023-04-02T17:35:18.859Z,77.98
2023-04-02T17:38:39.737Z,76.79
2023-04-02T17:42:16.253Z,76.74
2023-04-02T17:45:52.429Z,76.47
2023-04-02T17:49:02.386Z,76.81
2023-04-02T17:52:30.968Z,76.15
2023-04-02T17:55:55.230Z,76.85
2023-04-02T17:59:23.813Z,78.10
2023-04-02T18:02:45.557Z,78.53
2023-04-02T18:06:03.252Z,78.62
2023-04-02T18:09:41.514Z,78.18
2023-04-02T18:13:22.641Z,74.98
2023-04-02T18:16:49.519Z,74.14
2023-04-02T18:20:16.561Z,74.70
2023-04-02T18:23:48.526Z,73.95
2023-04-02T18:27:16.397Z,74.07
2023-04-02T18:30:25.347Z,74.35
2023-04-02T18:33:51.031Z,74.74
2023-04-02T18:37:35.250Z,74.48
2023-04-02T18:40:55.903Z,74.12
2023-04-02T18:44:24.136Z,74.89
2023-04-02T18:47:46.667Z,74.83
2023-04-02T18:50:49.628Z,75.59
2023-04-02T18:54:12.595Z,75.16
2023-04-02T18:57:27.428Z,74.81
2023-04-02T19:00:39.783Z,73.80
2023-04-02T19:03:55.446Z,73.15
2023-04-02T19:07:12.432Z,74.10
2023-04-02T19:10:35.748Z,74.09
2023-04-02T19:13:39.137Z,73.84
2023-04-02T19:16:50.691Z,73.47
2023-04-02T19:19:59.113Z,74.03
2023-04-02T19:23:26.251Z,73.75
2023-04-02T19:27:07.709Z,74.40
2023-04-02T19:30:48.336Z,73.98
2023-04-02T19:34:03.254Z,74.06
2023-04-02T19:37:22.120Z,73.95
2023-04-02T19:40:29.696Z,73.71
2023-04-02T19:43:32.657Z,74.63
2023-04-02T19:46:41.242Z,74.63
2023-04-02T19:49:44.266Z,74.20
2023-04-02T19:52:47.122Z,73.77
2023-04-02T19:55:49.828Z,72.96
2023-04-02T19:58:52.549Z,74.32
2023-04-02T20:01:55.309Z,74.40
2023-04-02T20:04:58.141Z,74.30
2023-04-02T20:08:03.886Z,74.04
2023-04-02T20:11:12.362Z,73.45
2023-04-02T20:14:18.049Z,73.81
2023-04-02T20:17:21.062Z,73.92
2023-04-02T20:20:23.924Z,74.29
2023-04-02T20:23:26.561Z,74.61
2023-04-02T20:26:30.111Z,73.78
2023-04-02T20:29:33.091Z,74.01
2023-04-02T20:32:38.475Z,73.29
2023-04-02T20:35:41.655Z,73.46
2023-04-02T20:38:45.911Z,73.73
2023-04-02T20:41:48.577Z,74.04
2023-04-02T20:44:51.573Z,73.58
2023-04-02T20:47:54.478Z,74.06
2023-04-02T20:50:57.622Z,73.79
2023-04-02T20:54:20.224Z,74.94
2023-04-02T20:57:27.678Z,74.72
2023-04-02T21:00:30.362Z,74.74
2023-04-02T21:03:36.072Z,74.37
2023-04-02T21:06:40.507Z,75.35
2023-04-02T21:09:45.855Z,74.95
2023-04-02T21:12:49.535Z,75.30
2023-04-02T21:15:52.076Z,76.01
2023-04-02T21:18:58.573Z,75.65
2023-04-02T21:22:01.150Z,75.51
2023-04-02T21:25:03.783Z,74.91
2023-04-02T21:28:06.584Z,75.15
2023-04-02T21:31:20.676Z,75.22
2023-04-02T21:34:23.242Z,76.21
2023-04-02T21:37:25.849Z,75.73
2023-04-02T21:40:28.433Z,75.48
2023-04-02T21:43:30.955Z,75.63
2023-04-02T21:46:39.190Z,75.15
2023-04-02T21:49:41.731Z,75.18
2023-04-02T21:52:46.918Z,74.98
2023-04-02T21:55:49.545Z,75.56
2023-04-02T21:58:52.676Z,75.27
2023-04-02T22:01:55.596Z,74.88
2023-04-02T22:04:58.308Z,74.98
2023-04-02T22:08:00.857Z,75.70
2023-04-02T22:11:12.315Z,74.38
2023-04-02T22:14:17.568Z,73.77
2023-04-02T22:17:20.203Z,73.52
2023-04-02T22:20:22.836Z,73.36
2023-04-02T22:23:26.816Z,72.76
2023-04-02T22:26:30.401Z,72.84
2023-04-02T22:29:34.899Z,72.52
2023-04-02T22:32:37.581Z,72.48
2023-04-02T22:35:42.864Z,72.19
2023-04-02T22:38:45.817Z,72.55
2023-04-02T22:41:48.341Z,72.36
2023-04-02T22:44:58.391Z,72.20
2023-04-02T22:48:06.157Z,72.15
2023-04-02T22:51:09.832Z,72.06
2023-04-02T22:54:12.545Z,72.31
2023-04-02T22:57:15.109Z,71.89
2023-04-02T23:00:21.539Z,72.23
2023-04-02T23:03:24.011Z,71.89
2023-04-02T23:06:27.148Z,72.44
2023-04-02T23:09:32.121Z,71.92
2023-04-02T23:12:34.708Z,71.76
2023-04-02T23:15:37.339Z,71.82
2023-04-02T23:18:41.352Z,71.65
2023-04-02T23:21:44.079Z,71.33
2023-04-02T23:24:46.717Z,71.76
2023-04-02T23:27:49.308Z,71.48
2023-04-02T23:30:52.496Z,71.62
2023-04-02T23:33:55.053Z,71.80
2023-04-02T23:36:57.663Z,71.33
2023-04-02T23:40:00.570Z,70.77
2023-04-02T23:43:03.359Z,70.93
2023-04-02T23:46:10.080Z,71.59
2023-04-02T23:49:13.280Z,71.29
2023-04-02T23:52:16.160Z,71.04
2023-04-02T23:55:21.903Z,71.39
2023-04-02T23:58:24.555Z,71.36
